sensor_id;sensor_type;location;lat;lon;timestamp;P1;durP1;ratioP1;P2;durP2;ratioP2
21927;SDS011;11128;51.096;17.190;2022-09-12T00:02:54;9.85;;;5.80;;
21927;SDS011;11128;51.096;17.190;2022-09-12T00:07:56;12.02;;;6.35;;
21927;SDS011;11128;51.096;17.190;2022-09-12T00:12:57;9.18;;;5.70;;
21927;SDS011;11128;51.096;17.190;2022-09-12T00:17:59;8.90;;;5.57;;
21927;SDS011;11128;51.096;17.190;2022-09-12T00:23:01;10.10;;;5.28;;
21927;SDS011;11128;51.096;17.190;2022-09-12T00:28:03;7.68;;;5.50;;
21927;SDS011;11128;51.096;17.190;2022-09-12T00:33:04;11.05;;;5.85;;
21927;SDS011;11128;51.096;17.190;2022-09-12T00:38:06;9.60;;;5.13;;
21927;SDS011;11128;51.096;17.190;2022-09-12T00:48:40;8.52;;;5.20;;
21927;SDS011;11128;51.096;17.190;2022-09-12T00:53:46;9.27;;;4.80;;
21927;SDS011;11128;51.096;17.190;2022-09-12T00:58:53;7.30;;;4.70;;
21927;SDS011;11128;51.096;17.190;2022-09-12T01:03:59;7.90;;;4.53;;
21927;SDS011;11128;51.096;17.190;2022-09-12T01:09:02;8.65;;;4.97;;
21927;SDS011;11128;51.096;17.190;2022-09-12T01:14:05;7.35;;;4.70;;
21927;SDS011;11128;51.096;17.190;2022-09-12T01:24:44;7.35;;;4.32;;
21927;SDS011;11128;51.096;17.190;2022-09-12T01:45:45;8.30;;;4.50;;
21927;SDS011;11128;51.096;17.190;2022-09-12T01:50:55;15.23;;;6.88;;
21927;SDS011;11128;51.096;17.190;2022-09-12T01:56:37;7.18;;;4.07;;
21927;SDS011;11128;51.096;17.190;2022-09-12T02:01:33;5.88;;;4.63;;
21927;SDS011;11128;51.096;17.190;2022-09-12T02:06:51;7.50;;;4.40;;
21927;SDS011;11128;51.096;17.190;2022-09-12T02:11:59;9.10;;;4.53;;
21927;SDS011;11128;51.096;17.190;2022-09-12T02:17:05;9.10;;;5.05;;
21927;SDS011;11128;51.096;17.190;2022-09-12T02:22:11;6.82;;;4.60;;
21927;SDS011;11128;51.096;17.190;2022-09-12T02:27:29;11.90;;;4.72;;
21927;SDS011;11128;51.096;17.190;2022-09-12T02:33:00;11.07;;;4.93;;
21927;SDS011;11128;51.096;17.190;2022-09-12T02:43:47;7.07;;;4.57;;
21927;SDS011;11128;51.096;17.190;2022-09-12T02:48:51;5.93;;;4.30;;
21927;SDS011;11128;51.096;17.190;2022-09-12T02:53:53;6.47;;;4.65;;
21927;SDS011;11128;51.096;17.190;2022-09-12T02:58:58;9.15;;;4.40;;
21927;SDS011;11128;51.096;17.190;2022-09-12T03:09:30;6.72;;;4.18;;
21927;SDS011;11128;51.096;17.190;2022-09-12T03:25:58;6.10;;;3.50;;
21927;SDS011;11128;51.096;17.190;2022-09-12T03:31:15;7.00;;;4.40;;
21927;SDS011;11128;51.096;17.190;2022-09-12T03:36:21;6.65;;;4.25;;
21927;SDS011;11128;51.096;17.190;2022-09-12T03:41:25;6.90;;;3.60;;
21927;SDS011;11128;51.096;17.190;2022-09-12T03:46:26;6.72;;;3.90;;
21927;SDS011;11128;51.096;17.190;2022-09-12T03:51:27;7.75;;;3.72;;
21927;SDS011;11128;51.096;17.190;2022-09-12T03:56:29;8.20;;;3.70;;
21927;SDS011;11128;51.096;17.190;2022-09-12T04:01:31;7.18;;;3.80;;
21927;SDS011;11128;51.096;17.190;2022-09-12T04:06:33;6.25;;;4.05;;
21927;SDS011;11128;51.096;17.190;2022-09-12T04:11:35;11.10;;;3.88;;
21927;SDS011;11128;51.096;17.190;2022-09-12T04:16:37;6.30;;;4.18;;
21927;SDS011;11128;51.096;17.190;2022-09-12T04:21:38;8.57;;;4.30;;
21927;SDS011;11128;51.096;17.190;2022-09-12T04:26:40;5.88;;;4.75;;
21927;SDS011;11128;51.096;17.190;2022-09-12T04:31:42;6.50;;;4.63;;
21927;SDS011;11128;51.096;17.190;2022-09-12T04:36:43;8.35;;;4.45;;
21927;SDS011;11128;51.096;17.190;2022-09-12T04:41:45;6.78;;;4.57;;
21927;SDS011;11128;51.096;17.190;2022-09-12T04:46:46;6.93;;;4.93;;
21927;SDS011;11128;51.096;17.190;2022-09-12T04:51:48;6.65;;;4.47;;
21927;SDS011;11128;51.096;17.190;2022-09-12T04:56:52;8.05;;;5.10;;
21927;SDS011;11128;51.096;17.190;2022-09-12T05:01:54;9.05;;;4.68;;
21927;SDS011;11128;51.096;17.190;2022-09-12T05:06:56;6.18;;;4.50;;
21927;SDS011;11128;51.096;17.190;2022-09-12T05:11:58;7.18;;;4.50;;
21927;SDS011;11128;51.096;17.190;2022-09-12T05:17:00;10.40;;;4.65;;
21927;SDS011;11128;51.096;17.190;2022-09-12T05:22:02;5.95;;;4.22;;
21927;SDS011;11128;51.096;17.190;2022-09-12T05:27:05;9.38;;;4.55;;
21927;SDS011;11128;51.096;17.190;2022-09-12T05:32:08;8.05;;;4.28;;
21927;SDS011;11128;51.096;17.190;2022-09-12T05:37:09;7.68;;;4.65;;
21927;SDS011;11128;51.096;17.190;2022-09-12T05:42:11;10.68;;;4.38;;
21927;SDS011;11128;51.096;17.190;2022-09-12T05:47:13;5.82;;;4.30;;
21927;SDS011;11128;51.096;17.190;2022-09-12T05:52:14;7.75;;;4.35;;
21927;SDS011;11128;51.096;17.190;2022-09-12T05:57:16;7.45;;;4.55;;
21927;SDS011;11128;51.096;17.190;2022-09-12T06:02:17;9.60;;;4.50;;
21927;SDS011;11128;51.096;17.190;2022-09-12T06:07:19;6.78;;;3.67;;
21927;SDS011;11128;51.096;17.190;2022-09-12T06:12:20;8.98;;;4.50;;
21927;SDS011;11128;51.096;17.190;2022-09-12T06:17:22;4.90;;;3.65;;
21927;SDS011;11128;51.096;17.190;2022-09-12T06:22:24;5.97;;;3.70;;
21927;SDS011;11128;51.096;17.190;2022-09-12T06:27:25;5.85;;;3.92;;
21927;SDS011;11128;51.096;17.190;2022-09-12T06:32:28;5.90;;;3.20;;
21927;SDS011;11128;51.096;17.190;2022-09-12T06:37:30;4.95;;;3.40;;
21927;SDS011;11128;51.096;17.190;2022-09-12T06:42:32;3.63;;;2.80;;
21927;SDS011;11128;51.096;17.190;2022-09-12T06:47:34;5.38;;;3.17;;
21927;SDS011;11128;51.096;17.190;2022-09-12T06:52:35;5.60;;;2.92;;
21927;SDS011;11128;51.096;17.190;2022-09-12T06:57:37;5.57;;;2.88;;
21927;SDS011;11128;51.096;17.190;2022-09-12T07:02:38;4.05;;;2.50;;
21927;SDS011;11128;51.096;17.190;2022-09-12T07:07:40;5.18;;;2.53;;
21927;SDS011;11128;51.096;17.190;2022-09-12T07:12:42;2.50;;;1.95;;
21927;SDS011;11128;51.096;17.190;2022-09-12T07:17:43;5.03;;;2.40;;
21927;SDS011;11128;51.096;17.190;2022-09-12T07:22:45;4.13;;;2.15;;
21927;SDS011;11128;51.096;17.190;2022-09-12T07:27:46;3.90;;;2.05;;
21927;SDS011;11128;51.096;17.190;2022-09-12T07:32:51;3.03;;;2.00;;
21927;SDS011;11128;51.096;17.190;2022-09-12T07:37:53;3.55;;;2.33;;
21927;SDS011;11128;51.096;17.190;2022-09-12T07:42:56;6.03;;;2.30;;
21927;SDS011;11128;51.096;17.190;2022-09-12T07:47:57;6.63;;;2.08;;
21927;SDS011;11128;51.096;17.190;2022-09-12T07:52:59;4.18;;;1.80;;
21927;SDS011;11128;51.096;17.190;2022-09-12T07:58:00;3.70;;;2.30;;
21927;SDS011;11128;51.096;17.190;2022-09-12T08:03:03;6.20;;;1.73;;
21927;SDS011;11128;51.096;17.190;2022-09-12T08:08:07;3.20;;;1.58;;
21927;SDS011;11128;51.096;17.190;2022-09-12T08:13:10;3.28;;;1.52;;
21927;SDS011;11128;51.096;17.190;2022-09-12T08:18:11;3.75;;;1.65;;
21927;SDS011;11128;51.096;17.190;2022-09-12T08:23:13;2.72;;;1.60;;
21927;SDS011;11128;51.096;17.190;2022-09-12T08:28:15;2.25;;;1.38;;
21927;SDS011;11128;51.096;17.190;2022-09-12T08:33:16;5.55;;;1.92;;
21927;SDS011;11128;51.096;17.190;2022-09-12T08:38:18;3.40;;;1.63;;
21927;SDS011;11128;51.096;17.190;2022-09-12T08:43:29;2.97;;;1.45;;
21927;SDS011;11128;51.096;17.190;2022-09-12T08:49:08;1.95;;;1.45;;
21927;SDS011;11128;51.096;17.190;2022-09-12T08:54:25;1.65;;;1.50;;
21927;SDS011;11128;51.096;17.190;2022-09-12T08:59:31;3.90;;;1.60;;
21927;SDS011;11128;51.096;17.190;2022-09-12T09:04:45;3.28;;;1.27;;
21927;SDS011;11128;51.096;17.190;2022-09-12T09:10:34;2.83;;;1.55;;
21927;SDS011;11128;51.096;17.190;2022-09-12T09:30:56;3.28;;;1.77;;
21927;SDS011;11128;51.096;17.190;2022-09-12T09:41:23;2.03;;;1.38;;
21927;SDS011;11128;51.096;17.190;2022-09-12T09:46:25;2.97;;;1.88;;
21927;SDS011;11128;51.096;17.190;2022-09-12T09:51:32;2.63;;;1.45;;
21927;SDS011;11128;51.096;17.190;2022-09-12T09:56:38;3.03;;;1.60;;
21927;SDS011;11128;51.096;17.190;2022-09-12T10:01:51;3.20;;;1.48;;
21927;SDS011;11128;51.096;17.190;2022-09-12T10:07:03;2.50;;;1.40;;
21927;SDS011;11128;51.096;17.190;2022-09-12T10:12:25;2.45;;;1.88;;
21927;SDS011;11128;51.096;17.190;2022-09-12T10:17:31;4.35;;;1.95;;
21927;SDS011;11128;51.096;17.190;2022-09-12T10:22:45;3.30;;;1.88;;
21927;SDS011;11128;51.096;17.190;2022-09-12T10:27:58;3.35;;;1.67;;
21927;SDS011;11128;51.096;17.190;2022-09-12T10:33:04;2.47;;;1.70;;
21927;SDS011;11128;51.096;17.190;2022-09-12T10:38:24;2.63;;;1.42;;
21927;SDS011;11128;51.096;17.190;2022-09-12T10:43:29;2.45;;;1.60;;
21927;SDS011;11128;51.096;17.190;2022-09-12T10:48:36;4.43;;;1.40;;
21927;SDS011;11128;51.096;17.190;2022-09-12T10:53:40;4.05;;;1.60;;
21927;SDS011;11128;51.096;17.190;2022-09-12T11:36:36;2.53;;;1.30;;
21927;SDS011;11128;51.096;17.190;2022-09-12T11:41:59;1.50;;;1.20;;
21927;SDS011;11128;51.096;17.190;2022-09-12T11:47:06;3.50;;;1.08;;
21927;SDS011;11128;51.096;17.190;2022-09-12T11:52:15;1.38;;;1.00;;
21927;SDS011;11128;51.096;17.190;2022-09-12T11:57:25;1.05;;;0.85;;
21927;SDS011;11128;51.096;17.190;2022-09-12T12:02:54;2.03;;;1.10;;
21927;SDS011;11128;51.096;17.190;2022-09-12T12:08:00;1.40;;;1.10;;
21927;SDS011;11128;51.096;17.190;2022-09-12T12:13:14;1.52;;;1.27;;
21927;SDS011;11128;51.096;17.190;2022-09-12T12:18:21;3.58;;;1.33;;
21927;SDS011;11128;51.096;17.190;2022-09-12T12:23:30;4.45;;;1.38;;
21927;SDS011;11128;51.096;17.190;2022-09-12T12:38:42;4.38;;;1.60;;
21927;SDS011;11128;51.096;17.190;2022-09-12T12:43:47;2.85;;;1.45;;
21927;SDS011;11128;51.096;17.190;2022-09-12T12:48:55;1.42;;;1.20;;
21927;SDS011;11128;51.096;17.190;2022-09-12T12:54:32;3.05;;;1.00;;
21927;SDS011;11128;51.096;17.190;2022-09-12T12:59:50;1.40;;;1.30;;
21927;SDS011;11128;51.096;17.190;2022-09-12T13:05:09;2.97;;;1.20;;
21927;SDS011;11128;51.096;17.190;2022-09-12T13:10:20;1.38;;;0.95;;
21927;SDS011;11128;51.096;17.190;2022-09-12T13:21:11;3.38;;;1.42;;
21927;SDS011;11128;51.096;17.190;2022-09-12T13:26:25;2.42;;;1.40;;
21927;SDS011;11128;51.096;17.190;2022-09-12T13:31:26;2.15;;;1.20;;
21927;SDS011;11128;51.096;17.190;2022-09-12T13:46:57;2.30;;;1.27;;
21927;SDS011;11128;51.096;17.190;2022-09-12T13:52:03;1.92;;;1.50;;
21927;SDS011;11128;51.096;17.190;2022-09-12T13:57:25;2.60;;;1.48;;
21927;SDS011;11128;51.096;17.190;2022-09-12T14:02:39;2.23;;;1.70;;
21927;SDS011;11128;51.096;17.190;2022-09-12T14:12:56;2.28;;;1.30;;
21927;SDS011;11128;51.096;17.190;2022-09-12T14:17:59;5.72;;;1.15;;
21927;SDS011;11128;51.096;17.190;2022-09-12T14:23:11;1.45;;;1.30;;
21927;SDS011;11128;51.096;17.190;2022-09-12T14:28:33;1.33;;;1.20;;
21927;SDS011;11128;51.096;17.190;2022-09-12T14:33:53;1.70;;;1.38;;
21927;SDS011;11128;51.096;17.190;2022-09-12T14:39:00;7.05;;;1.35;;
21927;SDS011;11128;51.096;17.190;2022-09-12T14:44:05;2.83;;;1.20;;
21927;SDS011;11128;51.096;17.190;2022-09-12T14:49:20;2.42;;;1.40;;
21927;SDS011;11128;51.096;17.190;2022-09-12T15:10:15;1.90;;;1.27;;
21927;SDS011;11128;51.096;17.190;2022-09-12T15:15:26;1.70;;;1.30;;
21927;SDS011;11128;51.096;17.190;2022-09-12T15:20:27;2.45;;;1.58;;
21927;SDS011;11128;51.096;17.190;2022-09-12T15:25:29;1.92;;;1.40;;
21927;SDS011;11128;51.096;17.190;2022-09-12T15:30:31;2.70;;;1.50;;
21927;SDS011;11128;51.096;17.190;2022-09-12T15:35:32;2.30;;;1.40;;
21927;SDS011;11128;51.096;17.190;2022-09-12T15:40:35;4.38;;;1.48;;
21927;SDS011;11128;51.096;17.190;2022-09-12T15:45:36;2.67;;;1.85;;
21927;SDS011;11128;51.096;17.190;2022-09-12T15:50:39;1.90;;;1.40;;
21927;SDS011;11128;51.096;17.190;2022-09-12T15:55:41;2.25;;;1.70;;
21927;SDS011;11128;51.096;17.190;2022-09-12T16:00:43;2.70;;;1.52;;
21927;SDS011;11128;51.096;17.190;2022-09-12T16:05:45;2.83;;;1.42;;
21927;SDS011;11128;51.096;17.190;2022-09-12T16:10:48;2.13;;;1.80;;
21927;SDS011;11128;51.096;17.190;2022-09-12T16:15:57;2.97;;;1.60;;
21927;SDS011;11128;51.096;17.190;2022-09-12T16:20:59;6.80;;;1.80;;
21927;SDS011;11128;51.096;17.190;2022-09-12T16:26:02;2.55;;;1.50;;
21927;SDS011;11128;51.096;17.190;2022-09-12T16:31:06;4.40;;;2.15;;
21927;SDS011;11128;51.096;17.190;2022-09-12T16:36:10;3.65;;;2.10;;
21927;SDS011;11128;51.096;17.190;2022-09-12T16:41:14;5.53;;;2.88;;
21927;SDS011;11128;51.096;17.190;2022-09-12T16:46:19;6.45;;;3.00;;
21927;SDS011;11128;51.096;17.190;2022-09-12T16:51:30;7.47;;;2.30;;
21927;SDS011;11128;51.096;17.190;2022-09-12T16:56:35;5.70;;;2.30;;
21927;SDS011;11128;51.096;17.190;2022-09-12T17:01:37;3.35;;;2.45;;
21927;SDS011;11128;51.096;17.190;2022-09-12T17:06:39;6.72;;;2.42;;
21927;SDS011;11128;51.096;17.190;2022-09-12T17:11:41;6.20;;;2.10;;
21927;SDS011;11128;51.096;17.190;2022-09-12T17:16:44;4.60;;;2.70;;
21927;SDS011;11128;51.096;17.190;2022-09-12T17:21:46;6.50;;;2.35;;
21927;SDS011;11128;51.096;17.190;2022-09-12T17:26:50;5.03;;;2.60;;
21927;SDS011;11128;51.096;17.190;2022-09-12T17:31:53;7.75;;;2.70;;
21927;SDS011;11128;51.096;17.190;2022-09-12T17:36:55;5.65;;;2.25;;
21927;SDS011;11128;51.096;17.190;2022-09-12T17:41:57;4.22;;;2.53;;
21927;SDS011;11128;51.096;17.190;2022-09-12T17:47:00;4.65;;;2.80;;
21927;SDS011;11128;51.096;17.190;2022-09-12T17:52:02;9.40;;;2.88;;
21927;SDS011;11128;51.096;17.190;2022-09-12T17:57:04;7.13;;;2.88;;
21927;SDS011;11128;51.096;17.190;2022-09-12T18:02:09;9.25;;;3.25;;
21927;SDS011;11128;51.096;17.190;2022-09-12T18:07:16;9.18;;;3.47;;
21927;SDS011;11128;51.096;17.190;2022-09-12T18:12:18;10.75;;;3.58;;
21927;SDS011;11128;51.096;17.190;2022-09-12T18:17:20;7.35;;;3.25;;
21927;SDS011;11128;51.096;17.190;2022-09-12T18:22:22;10.32;;;4.25;;
21927;SDS011;11128;51.096;17.190;2022-09-12T18:27:23;11.07;;;3.67;;
21927;SDS011;11128;51.096;17.190;2022-09-12T18:32:26;10.00;;;3.35;;
21927;SDS011;11128;51.096;17.190;2022-09-12T18:37:28;5.20;;;3.10;;
21927;SDS011;11128;51.096;17.190;2022-09-12T18:42:29;3.95;;;2.95;;
21927;SDS011;11128;51.096;17.190;2022-09-12T18:47:31;7.35;;;3.67;;
21927;SDS011;11128;51.096;17.190;2022-09-12T18:52:33;5.45;;;3.35;;
21927;SDS011;11128;51.096;17.190;2022-09-12T18:57:35;9.52;;;3.50;;
21927;SDS011;11128;51.096;17.190;2022-09-12T19:02:38;7.70;;;3.80;;
21927;SDS011;11128;51.096;17.190;2022-09-12T19:07:39;7.18;;;3.80;;
21927;SDS011;11128;51.096;17.190;2022-09-12T19:12:42;6.43;;;3.22;;
21927;SDS011;11128;51.096;17.190;2022-09-12T19:17:44;8.73;;;3.00;;
21927;SDS011;11128;51.096;17.190;2022-09-12T19:22:45;8.48;;;3.78;;
21927;SDS011;11128;51.096;17.190;2022-09-12T19:27:47;4.97;;;3.45;;
21927;SDS011;11128;51.096;17.190;2022-09-12T19:32:49;8.38;;;4.07;;
21927;SDS011;11128;51.096;17.190;2022-09-12T19:37:51;8.38;;;3.90;;
21927;SDS011;11128;51.096;17.190;2022-09-12T19:42:55;8.38;;;4.40;;
21927;SDS011;11128;51.096;17.190;2022-09-12T19:48:09;8.40;;;4.70;;
21927;SDS011;11128;51.096;17.190;2022-09-12T19:53:10;10.77;;;5.05;;
21927;SDS011;11128;51.096;17.190;2022-09-12T19:58:12;9.02;;;4.80;;
21927;SDS011;11128;51.096;17.190;2022-09-12T20:03:14;9.18;;;4.95;;
21927;SDS011;11128;51.096;17.190;2022-09-12T20:08:16;10.52;;;5.20;;
21927;SDS011;11128;51.096;17.190;2022-09-12T20:13:20;9.55;;;5.07;;
21927;SDS011;11128;51.096;17.190;2022-09-12T20:18:21;16.45;;;6.32;;
21927;SDS011;11128;51.096;17.190;2022-09-12T20:23:23;14.05;;;6.90;;
21927;SDS011;11128;51.096;17.190;2022-09-12T20:28:25;13.30;;;6.28;;
21927;SDS011;11128;51.096;17.190;2022-09-12T20:33:27;10.98;;;7.03;;
21927;SDS011;11128;51.096;17.190;2022-09-12T20:38:29;13.75;;;6.80;;
21927;SDS011;11128;51.096;17.190;2022-09-12T20:43:31;10.65;;;6.80;;
21927;SDS011;11128;51.096;17.190;2022-09-12T20:48:33;11.35;;;5.93;;
21927;SDS011;11128;51.096;17.190;2022-09-12T20:53:35;13.02;;;5.97;;
21927;SDS011;11128;51.096;17.190;2022-09-12T20:58:37;9.82;;;6.40;;
21927;SDS011;11128;51.096;17.190;2022-09-12T21:03:39;9.43;;;6.18;;
21927;SDS011;11128;51.096;17.190;2022-09-12T21:08:41;11.77;;;5.88;;
21927;SDS011;11128;51.096;17.190;2022-09-12T21:13:44;9.95;;;5.70;;
21927;SDS011;11128;51.096;17.190;2022-09-12T21:18:46;7.93;;;5.45;;
21927;SDS011;11128;51.096;17.190;2022-09-12T21:23:57;18.25;;;6.47;;
21927;SDS011;11128;51.096;17.190;2022-09-12T21:28:59;9.25;;;5.70;;
21927;SDS011;11128;51.096;17.190;2022-09-12T21:34:01;17.05;;;6.78;;
21927;SDS011;11128;51.096;17.190;2022-09-12T21:39:03;10.45;;;6.53;;
21927;SDS011;11128;51.096;17.190;2022-09-12T21:44:05;8.63;;;5.75;;
21927;SDS011;11128;51.096;17.190;2022-09-12T21:49:07;9.60;;;5.80;;
21927;SDS011;11128;51.096;17.190;2022-09-12T21:54:09;12.13;;;6.53;;
21927;SDS011;11128;51.096;17.190;2022-09-12T21:59:10;7.55;;;5.28;;
21927;SDS011;11128;51.096;17.190;2022-09-12T22:04:12;11.73;;;5.75;;
21927;SDS011;11128;51.096;17.190;2022-09-12T22:09:14;10.95;;;5.53;;
21927;SDS011;11128;51.096;17.190;2022-09-12T22:14:17;11.40;;;5.20;;
21927;SDS011;11128;51.096;17.190;2022-09-12T22:19:19;9.20;;;4.88;;
21927;SDS011;11128;51.096;17.190;2022-09-12T22:24:22;8.98;;;5.20;;
21927;SDS011;11128;51.096;17.190;2022-09-12T22:29:31;11.50;;;5.55;;
21927;SDS011;11128;51.096;17.190;2022-09-12T22:34:32;8.45;;;5.50;;
21927;SDS011;11128;51.096;17.190;2022-09-12T22:39:35;11.23;;;5.68;;
21927;SDS011;11128;51.096;17.190;2022-09-12T22:44:37;11.57;;;6.03;;
21927;SDS011;11128;51.096;17.190;2022-09-12T22:49:38;11.40;;;5.95;;
21927;SDS011;11128;51.096;17.190;2022-09-12T22:54:40;8.23;;;4.60;;
21927;SDS011;11128;51.096;17.190;2022-09-12T22:59:42;11.07;;;5.45;;
21927;SDS011;11128;51.096;17.190;2022-09-12T23:04:43;7.75;;;4.78;;
21927;SDS011;11128;51.096;17.190;2022-09-12T23:09:46;11.88;;;5.20;;
21927;SDS011;11128;51.096;17.190;2022-09-12T23:14:48;8.48;;;4.85;;
21927;SDS011;11128;51.096;17.190;2022-09-12T23:19:49;9.23;;;5.20;;
21927;SDS011;11128;51.096;17.190;2022-09-12T23:24:50;6.47;;;4.10;;
21927;SDS011;11128;51.096;17.190;2022-09-12T23:29:52;11.80;;;4.47;;
21927;SDS011;11128;51.096;17.190;2022-09-12T23:34:53;6.80;;;4.80;;
21927;SDS011;11128;51.096;17.190;2022-09-12T23:39:55;12.93;;;5.43;;
21927;SDS011;11128;51.096;17.190;2022-09-12T23:44:56;8.70;;;5.35;;
21927;SDS011;11128;51.096;17.190;2022-09-12T23:49:58;12.00;;;5.55;;
21927;SDS011;11128;51.096;17.190;2022-09-12T23:54:59;6.85;;;4.72;;
